Brokaw, Wisconsin
Current Conditions -  °F | °C
As of 3:54 AM on Thursday 23 Oct 2014 (Local Time) from KAUW Reporting Station
Overcast Overcast  
Wind Chill:   Ceiling: 6000
Heat Index:   Visibility: 10mi
Dew Point:   Wind: 5mph
Humidity: 86%   Direction: 130°SE
Pressure: 30.12"   Gusts: NA
Location:  45.03°N, 89.65°W
Report Text: KAUW 230854Z AUTO 13004KT 10SM FEW046 OVC060 05/03 A3012 RMK AO2 SLP211 T00500028 58012
Loading
Personal Weather Stations






























Interactive Weather Map
Tropical Storm Tracking
New forecast layout! Learn more

10-Day Weather Forecast

Advertisements
Track Severe Weather on mobile